Time;durP1;ratioP1;P1;durP2;ratioP2;P2;SDS_P1;SDS_P2;PMS_P1;PMS_P2;Temp;Humidity;BMP_temperature;BMP_pressure;BME280_temperature;BME280_humidity;BME280_pressure;Samples;Min_cycle;Max_cycle;Signal;HPM_P1;HPM_P2
2023/03/08 00:00:12;;;;;;;5.10;3.60;;;3.90;99.90;;;;;;5093893;28;20487;-58
2023/03/08 00:02:38;;;;;;;5.30;3.90;;;3.90;99.90;;;;;;5093628;28;20440;-58
2023/03/08 00:05:07;;;;;;;5.30;3.60;;;3.90;99.90;;;;;;5093427;28;20447;-58
2023/03/08 00:07:34;;;;;;;6.60;3.47;;;3.90;99.90;;;;;;5093557;28;20493;-58
2023/03/08 00:10:00;;;;;;;4.30;3.10;;;3.90;99.90;;;;;;5093044;28;20480;-58
2023/03/08 00:12:28;;;;;;;2.90;2.60;;;3.90;99.90;;;;;;5093461;28;20447;-58
2023/03/08 00:14:56;;;;;;;5.67;3.37;;;3.90;99.90;;;;;;5093368;28;20444;-57
2023/03/08 00:17:24;;;;;;;9.57;3.60;;;4.00;99.90;;;;;;5093316;28;20447;-58
2023/03/08 00:19:51;;;;;;;5.43;3.10;;;3.90;99.90;;;;;;5092982;28;20575;-58
2023/03/08 00:22:18;;;;;;;4.57;2.90;;;3.90;99.90;;;;;;5093372;28;20444;-58
2023/03/08 00:24:45;;;;;;;5.33;3.40;;;3.90;99.90;;;;;;5092960;28;20848;-57
2023/03/08 00:27:12;;;;;;;4.67;3.60;;;3.90;99.90;;;;;;5093306;28;20472;-57
2023/03/08 00:29:38;;;;;;;5.47;4.10;;;3.90;99.90;;;;;;5093214;28;20488;-58
2023/03/08 00:32:07;;;;;;;4.63;3.10;;;3.80;99.90;;;;;;5093260;28;20475;-57
2023/03/08 00:34:33;;;;;;;7.97;3.73;;;3.80;99.90;;;;;;5093156;28;20454;-57
2023/03/08 00:37:00;;;;;;;6.20;3.40;;;3.80;99.90;;;;;;5093235;28;20451;-58
2023/03/08 00:39:27;;;;;;;7.87;3.50;;;3.80;99.90;;;;;;5093305;28;20448;-57
2023/03/08 00:41:53;;;;;;;8.23;3.67;;;3.80;99.90;;;;;;5093170;28;20556;-57
2023/03/08 00:44:20;;;;;;;7.20;3.47;;;3.80;99.90;;;;;;5092796;28;20455;-57
2023/03/08 00:46:47;;;;;;;8.37;3.67;;;3.80;99.90;;;;;;5093113;28;20448;-57
2023/03/08 00:49:15;;;;;;;7.13;3.80;;;3.80;99.90;;;;;;5092759;28;20971;-57
2023/03/08 00:51:41;;;;;;;8.50;3.67;;;3.80;99.90;;;;;;5093063;28;20471;-57
2023/03/08 00:54:08;;;;;;;8.23;3.67;;;3.90;99.90;;;;;;5093010;28;20447;-57
2023/03/08 00:56:35;;;;;;;7.63;3.70;;;3.80;99.90;;;;;;5092983;28;20444;-57
2023/03/08 00:59:01;;;;;;;8.10;3.43;;;3.80;99.90;;;;;;5092641;28;20961;-58
2023/03/08 01:01:28;;;;;;;7.67;5.20;;;3.80;99.90;;;;;;5092524;28;20854;-58
2023/03/08 01:03:55;;;;;;;6.53;3.40;;;3.90;99.90;;;;;;5093365;28;20448;-57
2023/03/08 01:06:23;;;;;;;10.00;4.20;;;3.90;99.90;;;;;;5092869;28;20859;-57
2023/03/08 01:08:49;;;;;;;6.53;3.43;;;3.80;99.90;;;;;;5092811;28;20456;-57
2023/03/08 01:11:18;;;;;;;7.37;4.37;;;3.90;99.90;;;;;;5092578;28;20467;-57
2023/03/08 01:13:45;;;;;;;6.63;4.50;;;3.80;99.90;;;;;;5096006;28;20447;-57
2023/03/08 01:16:17;;;;;;;7.90;4.10;;;3.80;99.90;;;;;;5096487;28;20455;-57
2023/03/08 01:18:43;;;;;;;5.40;3.93;;;3.90;99.90;;;;;;5096370;28;20455;-56
2023/03/08 01:21:11;;;;;;;16.13;5.30;;;3.90;99.90;;;;;;5096253;28;20479;-57
2023/03/08 01:23:39;;;;;;;8.20;3.90;;;3.90;99.90;;;;;;5096321;28;20455;-57
2023/03/08 01:26:08;;;;;;;6.50;3.80;;;3.90;99.90;;;;;;5096230;28;20474;-57
2023/03/08 01:28:35;;;;;;;6.73;4.20;;;3.90;99.90;;;;;;5096237;28;20444;-57
2023/03/08 01:31:02;;;;;;;10.03;4.17;;;3.90;99.90;;;;;;5096158;28;20459;-57
2023/03/08 01:33:29;;;;;;;5.87;3.47;;;3.90;99.90;;;;;;5096694;28;20621;-57
2023/03/08 01:35:56;;;;;;;6.47;3.47;;;3.90;99.90;;;;;;5096082;28;20451;-58
2023/03/08 01:38:23;;;;;;;5.93;3.80;;;3.90;99.90;;;;;;5096034;28;20451;-58
2023/03/08 01:40:55;;;;;;;10.40;4.20;;;4.00;99.90;;;;;;5095850;28;20492;-58
2023/03/08 01:43:24;;;;;;;7.43;3.70;;;3.90;99.90;;;;;;5096090;28;20493;-58
2023/03/08 01:46:20;;;;;;;4.00;3.00;;;4.00;99.90;;;;;;5095916;28;20497;-57
2023/03/08 01:48:51;;;;;;;5.10;3.40;;;3.90;99.90;;;;;;5095916;28;20479;-57
2023/03/08 01:51:24;;;;;;;5.80;3.90;;;3.90;99.90;;;;;;5097785;28;20459;-57
2023/03/08 01:53:51;;;;;;;5.40;3.60;;;3.90;99.90;;;;;;5097577;28;20436;-57
2023/03/08 01:56:22;;;;;;;6.97;4.50;;;4.00;99.90;;;;;;5096552;28;20443;-57
2023/03/08 01:58:51;;;;;;;8.40;3.40;;;4.00;99.90;;;;;;5096119;28;20913;-57
2023/03/08 02:01:19;;;;;;;5.57;3.60;;;3.90;99.90;;;;;;5095923;28;20603;-57
2023/03/08 02:03:46;;;;;;;6.63;3.70;;;3.90;99.90;;;;;;5095647;28;21062;-57
2023/03/08 02:06:15;;;;;;;8.13;4.20;;;3.90;99.90;;;;;;5095694;28;20531;-57
2023/03/08 02:08:42;;;;;;;4.90;3.50;;;3.90;99.90;;;;;;5095683;28;20501;-57
2023/03/08 02:11:09;;;;;;;8.27;4.43;;;3.90;99.90;;;;;;5095230;28;20476;-57
2023/03/08 02:13:38;;;;;;;8.37;3.87;;;3.90;99.90;;;;;;5095413;28;20440;-57
2023/03/08 02:16:07;;;;;;;5.93;4.20;;;3.90;99.90;;;;;;5096594;28;20513;-57
2023/03/08 02:18:34;;;;;;;4.87;3.50;;;3.90;99.90;;;;;;5095427;28;20470;-57
2023/03/08 02:21:01;;;;;;;5.80;4.00;;;3.90;99.90;;;;;;5095319;28;20562;-57
2023/03/08 02:23:29;;;;;;;13.23;4.60;;;3.90;99.90;;;;;;5094122;28;20966;-57
2023/03/08 02:25:59;;;;;;;6.80;4.47;;;3.90;99.90;;;;;;5095152;28;20446;-57
2023/03/08 02:28:27;;;;;;;4.83;4.07;;;3.90;99.90;;;;;;5095185;28;20459;-57
2023/03/08 02:30:55;;;;;;;6.80;4.13;;;3.90;99.90;;;;;;5095156;28;20460;-57
2023/03/08 02:33:22;;;;;;;11.97;5.07;;;3.90;99.90;;;;;;5095234;28;20448;-57
2023/03/08 02:35:48;;;;;;;8.03;4.97;;;3.90;99.90;;;;;;5094837;28;20448;-57
2023/03/08 02:38:17;;;;;;;5.97;3.57;;;3.90;99.90;;;;;;5094698;28;20451;-57
2023/03/08 02:40:46;;;;;;;7.63;3.57;;;3.90;99.90;;;;;;5094913;28;20520;-57
2023/03/08 02:43:13;;;;;;;7.43;3.30;;;3.90;99.90;;;;;;5094933;28;20448;-58
2023/03/08 02:45:39;;;;;;;9.60;3.93;;;3.90;99.90;;;;;;5094782;28;20444;-58
2023/03/08 02:48:07;;;;;;;9.03;4.00;;;3.90;99.90;;;;;;5094764;28;20451;-58
2023/03/08 02:50:35;;;;;;;12.83;4.77;;;4.00;99.90;;;;;;5094646;28;20459;-58
2023/03/08 02:53:02;;;;;;;6.37;3.63;;;3.90;99.90;;;;;;5094248;28;20941;-57
2023/03/08 02:55:28;;;;;;;7.40;4.20;;;3.90;99.90;;;;;;5094597;28;20451;-58
2023/03/08 02:57:56;;;;;;;7.17;3.83;;;3.80;99.90;;;;;;5094605;28;20458;-58
2023/03/08 03:00:23;;;;;;;6.37;4.77;;;3.80;99.90;;;;;;5094173;28;20471;-58
2023/03/08 03:02:50;;;;;;;7.43;4.80;;;3.80;99.90;;;;;;5094133;28;20817;-58
2023/03/08 03:05:16;;;;;;;6.27;5.07;;;3.80;99.90;;;;;;5094387;28;20471;-57
2023/03/08 03:07:43;;;;;;;7.30;5.20;;;3.80;99.90;;;;;;5094364;28;20516;-58
2023/03/08 03:10:12;;;;;;;7.00;4.50;;;3.80;99.90;;;;;;5093937;28;20548;-58
2023/03/08 03:12:39;;;;;;;5.50;4.30;;;3.80;99.90;;;;;;5094234;28;20444;-58
2023/03/08 03:15:08;;;;;;;6.83;4.50;;;3.80;99.90;;;;;;5094221;28;20452;-58
2023/03/08 03:17:36;;;;;;;5.97;4.80;;;3.70;99.90;;;;;;5094248;28;20444;-58
2023/03/08 03:20:05;;;;;;;6.50;4.63;;;3.60;99.90;;;;;;5094176;28;20546;-58
2023/03/08 03:22:32;;;;;;;12.90;4.63;;;3.60;99.90;;;;;;5094011;28;20490;-58
2023/03/08 03:24:58;;;;;;;6.63;4.87;;;3.60;99.90;;;;;;5093960;28;20482;-58
2023/03/08 03:27:25;;;;;;;8.10;4.73;;;3.60;99.90;;;;;;5093805;28;20454;-58
2023/03/08 03:29:52;;;;;;;7.40;4.93;;;3.60;99.90;;;;;;5093988;28;20467;-58
2023/03/08 03:32:20;;;;;;;6.30;5.10;;;3.60;99.90;;;;;;5094143;28;20455;-58
2023/03/08 03:34:47;;;;;;;8.57;5.57;;;3.50;99.90;;;;;;5093779;28;20454;-58
2023/03/08 03:37:14;;;;;;;10.13;6.53;;;3.50;99.90;;;;;;5093638;28;20448;-58
2023/03/08 03:39:41;;;;;;;7.60;6.07;;;3.60;99.90;;;;;;5093446;28;21017;-58
2023/03/08 03:42:08;;;;;;;8.57;6.57;;;3.60;99.90;;;;;;5094166;28;20483;-58
2023/03/08 03:44:35;;;;;;;8.57;5.70;;;3.60;99.90;;;;;;5095919;28;20458;-58
2023/03/08 03:47:01;;;;;;;11.50;7.23;;;3.60;99.90;;;;;;5095880;28;20463;-58
2023/03/08 03:49:29;;;;;;;7.50;6.00;;;3.60;99.90;;;;;;5095739;28;20447;-58
2023/03/08 03:51:56;;;;;;;9.73;6.13;;;3.60;99.90;;;;;;5093696;28;20493;-58
2023/03/08 03:54:23;;;;;;;7.63;5.50;;;3.60;99.90;;;;;;5093541;28;20470;-58
2023/03/08 03:56:50;;;;;;;10.90;7.20;;;3.60;99.90;;;;;;5093784;28;20454;-58
2023/03/08 03:59:16;;;;;;;11.27;6.60;;;3.50;99.90;;;;;;5093551;28;20444;-58
2023/03/08 04:01:43;;;;;;;6.20;5.60;;;3.50;99.90;;;;;;5093524;28;20479;-58
2023/03/08 04:04:10;;;;;;;7.70;6.27;;;3.60;99.90;;;;;;5093484;28;20681;-58
2023/03/08 04:06:39;;;;;;;8.90;5.73;;;3.60;99.90;;;;;;5093513;28;20496;-58
2023/03/08 04:09:07;;;;;;;9.53;6.80;;;3.60;99.90;;;;;;5093363;28;20533;-58
2023/03/08 04:11:36;;;;;;;9.93;6.63;;;3.60;99.90;;;;;;5093523;28;20496;-58
2023/03/08 04:14:03;;;;;;;9.80;6.13;;;3.60;99.90;;;;;;5093354;28;20447;-58
2023/03/08 04:16:31;;;;;;;9.73;6.40;;;3.60;99.90;;;;;;5093404;28;20463;-58
2023/03/08 04:18:59;;;;;;;12.90;6.37;;;3.60;99.90;;;;;;5093431;28;20448;-58
2023/03/08 04:21:27;;;;;;;9.13;5.90;;;3.60;99.90;;;;;;5093227;28;20483;-58
2023/03/08 04:23:55;;;;;;;9.03;6.20;;;3.60;99.90;;;;;;5093362;28;20466;-58
2023/03/08 04:26:22;;;;;;;9.00;6.00;;;3.70;99.90;;;;;;5093278;28;20444;-58
2023/03/08 04:28:48;;;;;;;9.73;6.10;;;3.70;99.90;;;;;;5093381;28;20444;-58
2023/03/08 04:31:17;;;;;;;8.97;6.73;;;3.80;99.90;;;;;;5093255;28;20463;-58
2023/03/08 04:33:44;;;;;;;10.50;6.80;;;3.80;99.90;;;;;;5093277;28;20452;-57
2023/03/08 04:36:12;;;;;;;10.93;6.87;;;3.80;99.90;;;;;;5093205;28;20448;-57
2023/03/08 04:38:39;;;;;;;9.23;6.47;;;3.90;99.90;;;;;;5093143;28;20475;-57
2023/03/08 04:41:10;;;;;;;13.63;6.10;;;3.90;99.90;;;;;;5093007;28;20480;-57
2023/03/08 04:43:37;;;;;;;7.87;5.83;;;3.90;99.90;;;;;;5093264;28;20793;-57
2023/03/08 04:46:05;;;;;;;7.33;5.77;;;3.90;99.90;;;;;;5093622;28;20479;-57
2023/03/08 04:48:32;;;;;;;8.00;6.00;;;3.90;99.90;;;;;;5097412;28;20473;-57
2023/03/08 04:51:00;;;;;;;7.63;5.60;;;4.00;99.90;;;;;;5097976;28;20467;-57
2023/03/08 04:53:28;;;;;;;8.77;5.80;;;4.00;99.90;;;;;;5097409;28;20451;-57
2023/03/08 04:55:55;;;;;;;8.33;5.80;;;4.00;99.90;;;;;;5096939;28;20516;-57
2023/03/08 04:58:23;;;;;;;10.50;6.27;;;4.00;99.90;;;;;;5097395;28;20451;-57
2023/03/08 05:00:50;;;;;;;8.20;6.80;;;4.00;99.90;;;;;;5096958;28;20467;-57
2023/03/08 05:03:17;;;;;;;7.90;5.40;;;4.00;99.90;;;;;;5096372;28;20996;-57
2023/03/08 05:05:49;;;;;;;6.33;5.73;;;4.00;99.90;;;;;;5096883;28;20500;-57
2023/03/08 05:08:17;;;;;;;6.93;6.23;;;4.00;99.90;;;;;;5096716;28;20452;-57
2023/03/08 05:10:47;;;;;;;8.87;7.30;;;4.00;99.90;;;;;;5096248;28;20476;-58
2023/03/08 05:13:14;;;;;;;11.60;9.07;;;4.00;99.90;;;;;;5096668;28;20902;-58
2023/03/08 05:15:42;;;;;;;10.70;8.37;;;4.00;99.90;;;;;;5096617;28;20452;-58
2023/03/08 05:18:08;;;;;;;9.67;7.67;;;4.00;99.90;;;;;;5096501;28;20825;-57
2023/03/08 05:20:35;;;;;;;8.50;6.97;;;4.00;99.90;;;;;;5096329;28;20471;-58
2023/03/08 05:23:02;;;;;;;9.90;7.17;;;4.00;99.90;;;;;;5096471;28;20471;-57
2023/03/08 05:25:29;;;;;;;9.20;6.63;;;4.00;99.90;;;;;;5096359;28;20444;-58
2023/03/08 05:27:56;;;;;;;6.20;5.40;;;4.00;99.90;;;;;;5096255;28;20458;-58
2023/03/08 05:30:23;;;;;;;7.00;5.63;;;4.00;99.90;;;;;;5096262;28;20478;-58
2023/03/08 05:32:51;;;;;;;8.53;5.43;;;4.00;99.90;;;;;;5096216;28;20455;-58
2023/03/08 05:35:18;;;;;;;8.83;5.93;;;4.00;99.90;;;;;;5095879;28;20451;-58
2023/03/08 05:37:44;;;;;;;6.57;5.63;;;3.90;99.90;;;;;;5096229;28;20454;-58
2023/03/08 05:40:12;;;;;;;8.33;7.00;;;4.00;99.90;;;;;;5096050;28;20479;-57
2023/03/08 05:42:39;;;;;;;8.00;6.60;;;4.00;99.90;;;;;;5095942;28;20475;-58
2023/03/08 05:45:07;;;;;;;9.80;7.50;;;4.00;99.90;;;;;;5096076;28;20451;-57
2023/03/08 05:47:33;;;;;;;9.10;7.53;;;4.00;99.90;;;;;;5095909;28;20458;-58
2023/03/08 05:50:01;;;;;;;8.73;7.80;;;4.00;99.90;;;;;;5095793;28;20468;-57
2023/03/08 05:52:29;;;;;;;9.17;7.40;;;4.00;99.90;;;;;;5095525;28;20933;-57
2023/03/08 05:54:56;;;;;;;9.23;7.50;;;4.00;99.90;;;;;;5095725;28;20473;-58
2023/03/08 05:57:23;;;;;;;8.13;6.73;;;3.90;99.90;;;;;;5095774;28;20455;-57
2023/03/08 05:59:49;;;;;;;11.57;8.33;;;3.90;99.90;;;;;;5095395;28;20463;-57
2023/03/08 06:02:16;;;;;;;11.00;8.67;;;3.90;99.90;;;;;;5095207;28;20893;-58
2023/03/08 06:04:43;;;;;;;12.07;8.53;;;3.90;99.90;;;;;;5095302;28;20989;-57
2023/03/08 06:07:11;;;;;;;11.20;9.20;;;3.90;99.90;;;;;;5095553;28;20452;-57
2023/03/08 06:09:37;;;;;;;12.40;9.63;;;3.90;99.90;;;;;;5095121;28;20487;-58
2023/03/08 06:12:04;;;;;;;12.67;9.87;;;3.90;99.90;;;;;;5095432;28;20474;-57
2023/03/08 06:14:31;;;;;;;12.50;9.07;;;3.90;99.90;;;;;;5094931;28;20937;-57
2023/03/08 06:16:58;;;;;;;12.10;9.40;;;3.90;99.90;;;;;;5095050;28;20455;-57
2023/03/08 06:19:25;;;;;;;15.30;10.50;;;3.90;99.90;;;;;;5094937;28;20452;-57
2023/03/08 06:21:51;;;;;;;13.20;9.80;;;3.90;99.90;;;;;;5095243;28;20491;-57
2023/03/08 06:24:19;;;;;;;13.87;10.80;;;3.90;99.90;;;;;;5095161;28;20447;-57
2023/03/08 06:26:46;;;;;;;12.07;9.40;;;3.90;99.90;;;;;;5094644;28;20447;-57
2023/03/08 06:29:13;;;;;;;15.90;10.03;;;3.90;99.90;;;;;;5095083;28;20459;-57
2023/03/08 06:31:40;;;;;;;12.07;10.00;;;3.80;99.90;;;;;;5095100;28;20489;-57
2023/03/08 06:34:06;;;;;;;15.17;11.27;;;3.90;99.90;;;;;;5095049;28;20447;-57
2023/03/08 06:36:33;;;;;;;13.50;10.27;;;3.80;99.90;;;;;;5094966;28;20447;-57
2023/03/08 06:39:00;;;;;;;14.67;11.20;;;3.90;99.90;;;;;;5094883;28;20448;-57
2023/03/08 06:41:29;;;;;;;12.70;9.40;;;3.90;99.90;;;;;;5094440;28;20470;-57
2023/03/08 06:43:55;;;;;;;13.00;10.20;;;3.80;99.90;;;;;;5094698;28;20482;-57
2023/03/08 06:46:22;;;;;;;11.50;9.73;;;3.80;99.90;;;;;;5094764;28;20451;-57
2023/03/08 06:48:49;;;;;;;12.93;9.23;;;3.80;99.90;;;;;;5094711;28;20444;-57
2023/03/08 06:51:16;;;;;;;11.03;7.93;;;3.90;99.90;;;;;;5094120;28;20837;-57
2023/03/08 06:53:43;;;;;;;9.40;8.17;;;3.90;99.90;;;;;;5094473;28;20447;-57
2023/03/08 06:56:13;;;;;;;10.77;7.33;;;3.90;99.90;;;;;;5094639;28;20444;-57
2023/03/08 06:58:42;;;;;;;12.43;9.10;;;3.90;99.90;;;;;;5094596;28;20546;-57
2023/03/08 07:01:09;;;;;;;10.33;8.43;;;3.90;99.90;;;;;;5094463;28;20472;-57
2023/03/08 07:03:37;;;;;;;9.40;7.70;;;3.90;99.90;;;;;;5094355;28;20491;-57
2023/03/08 07:06:06;;;;;;;8.20;6.57;;;3.90;99.90;;;;;;5094366;28;20448;-57
2023/03/08 07:08:33;;;;;;;9.83;7.50;;;3.90;99.90;;;;;;5094078;28;20933;-57
2023/03/08 07:11:00;;;;;;;12.43;8.47;;;3.90;99.90;;;;;;5093336;28;20483;-57
2023/03/08 07:13:28;;;;;;;9.50;7.33;;;3.90;99.90;;;;;;5094297;28;20447;-57
2023/03/08 07:15:57;;;;;;;9.53;7.03;;;3.90;99.90;;;;;;5094212;28;20448;-57
2023/03/08 07:18:23;;;;;;;8.87;6.97;;;3.90;99.90;;;;;;5094346;28;20459;-56
2023/03/08 07:20:52;;;;;;;10.20;7.30;;;3.90;99.90;;;;;;5094104;28;20471;-57
2023/03/08 07:23:19;;;;;;;8.60;6.77;;;3.90;99.90;;;;;;5093964;28;20480;-57
2023/03/08 07:25:46;;;;;;;9.17;7.27;;;3.90;99.90;;;;;;5094081;28;20454;-57
2023/03/08 07:28:12;;;;;;;8.60;6.10;;;3.90;99.90;;;;;;5094092;28;20451;-57
2023/03/08 07:30:39;;;;;;;7.93;6.90;;;3.90;99.90;;;;;;5093956;28;20877;-57
2023/03/08 07:33:07;;;;;;;11.00;6.60;;;3.90;99.90;;;;;;5093964;28;20447;-57
2023/03/08 07:35:34;;;;;;;9.70;6.80;;;3.90;99.90;;;;;;5093875;28;20881;-57
2023/03/08 07:38:00;;;;;;;11.20;8.03;;;3.90;99.90;;;;;;5093999;28;20444;-57
2023/03/08 07:40:27;;;;;;;9.67;6.90;;;3.90;99.90;;;;;;5093926;28;20464;-57
2023/03/08 07:42:55;;;;;;;9.27;7.10;;;3.90;99.90;;;;;;5094492;28;20479;-57
2023/03/08 07:45:22;;;;;;;9.20;7.03;;;3.90;99.90;;;;;;5094582;28;20945;-56
2023/03/08 07:47:51;;;;;;;9.27;7.07;;;3.90;99.90;;;;;;5094436;28;20479;-57
2023/03/08 07:50:19;;;;;;;12.20;6.00;;;3.90;99.90;;;;;;5093902;28;20493;-56
2023/03/08 07:52:46;;;;;;;10.27;7.40;;;3.90;99.90;;;;;;5093576;28;20865;-56
2023/03/08 07:55:13;;;;;;;13.27;8.70;;;3.90;99.90;;;;;;5093745;28;20444;-57
2023/03/08 07:57:40;;;;;;;10.00;7.77;;;3.90;99.90;;;;;;5094010;28;20465;-57
2023/03/08 08:00:08;;;;;;;9.77;8.47;;;3.90;99.90;;;;;;5093738;28;20463;-56
2023/03/08 08:02:35;;;;;;;13.17;8.07;;;3.90;99.90;;;;;;5093240;28;21007;-56
2023/03/08 08:05:02;;;;;;;11.10;8.03;;;3.90;99.90;;;;;;5093312;28;20466;-56
2023/03/08 08:07:31;;;;;;;10.43;7.87;;;3.90;99.90;;;;;;5093425;28;20535;-56
2023/03/08 08:09:57;;;;;;;10.43;8.13;;;3.90;99.90;;;;;;5093262;28;20472;-57
2023/03/08 08:12:24;;;;;;;10.00;8.13;;;4.00;99.90;;;;;;5093181;28;20929;-56
2023/03/08 08:14:51;;;;;;;9.90;7.07;;;3.90;99.90;;;;;;5093210;28;20447;-56
2023/03/08 08:17:18;;;;;;;11.40;6.83;;;3.90;99.90;;;;;;5093404;28;20486;-57
2023/03/08 08:19:45;;;;;;;10.17;7.30;;;4.00;99.90;;;;;;5093410;28;20564;-56
2023/03/08 08:22:12;;;;;;;10.10;7.27;;;4.00;99.90;;;;;;5094327;28;20439;-57
2023/03/08 08:24:40;;;;;;;10.37;7.20;;;3.90;99.90;;;;;;5097182;28;21014;-56
2023/03/08 08:27:07;;;;;;;9.00;6.70;;;3.90;99.90;;;;;;5097235;28;20809;-57
2023/03/08 08:29:34;;;;;;;10.27;7.87;;;4.00;99.90;;;;;;5097473;28;20466;-56
2023/03/08 08:32:00;;;;;;;9.07;7.30;;;4.00;99.90;;;;;;5097488;28;20447;-56
2023/03/08 08:34:27;;;;;;;11.23;9.03;;;4.00;99.90;;;;;;5097357;28;20432;-57
2023/03/08 08:36:53;;;;;;;8.63;7.07;;;4.00;99.90;;;;;;5097296;28;20451;-57
2023/03/08 08:39:20;;;;;;;9.43;6.97;;;4.00;99.90;;;;;;5097829;28;20443;-57
2023/03/08 08:41:50;;;;;;;9.43;7.10;;;4.00;99.90;;;;;;5096934;28;20937;-56
2023/03/08 08:44:16;;;;;;;9.60;7.60;;;4.00;99.90;;;;;;5097098;28;20487;-56
2023/03/08 08:46:43;;;;;;;9.97;7.00;;;4.00;99.90;;;;;;5097150;28;20845;-57
2023/03/08 08:49:10;;;;;;;9.17;7.23;;;4.00;99.90;;;;;;5097125;28;20454;-56
2023/03/08 08:51:37;;;;;;;9.53;7.03;;;4.00;99.90;;;;;;5097233;28;20525;-57
2023/03/08 08:54:04;;;;;;;8.13;7.17;;;4.00;99.90;;;;;;5097203;28;20463;-57
2023/03/08 08:56:31;;;;;;;12.10;7.97;;;4.10;99.90;;;;;;5096769;28;20446;-57
2023/03/08 08:59:01;;;;;;;10.70;7.37;;;4.10;99.90;;;;;;5097713;28;20454;-57
2023/03/08 09:01:30;;;;;;;8.67;7.40;;;4.10;99.90;;;;;;5096794;28;20474;-57
2023/03/08 09:03:57;;;;;;;9.53;7.70;;;4.10;99.90;;;;;;5096717;28;20475;-57
2023/03/08 09:06:25;;;;;;;9.00;7.00;;;4.10;99.90;;;;;;5096698;28;20458;-57
2023/03/08 09:08:53;;;;;;;9.33;7.93;;;4.20;99.90;;;;;;5096438;28;20843;-57
2023/03/08 09:11:20;;;;;;;9.10;7.80;;;4.20;99.90;;;;;;5096645;28;20452;-56
2023/03/08 09:13:47;;;;;;;11.13;8.00;;;4.10;99.90;;;;;;5096322;28;20975;-57
2023/03/08 09:16:21;;;;;;;8.90;7.43;;;4.20;99.90;;;;;;5096612;28;20447;-57
2023/03/08 09:18:48;;;;;;;10.80;8.80;;;4.20;99.90;;;;;;5096622;28;20794;-57
2023/03/08 09:21:15;;;;;;;10.00;8.27;;;4.20;99.90;;;;;;5096532;28;20467;-57
2023/03/08 09:23:42;;;;;;;10.27;8.70;;;4.20;99.90;;;;;;5096457;28;20887;-57
2023/03/08 09:26:09;;;;;;;9.70;8.70;;;4.20;99.90;;;;;;5096407;28;20447;-57
2023/03/08 09:28:36;;;;;;;10.27;8.57;;;4.30;99.90;;;;;;5096406;28;20454;-57
2023/03/08 09:31:10;;;;;;;9.33;7.67;;;4.30;99.90;;;;;;5096299;28;20518;-57
2023/03/08 09:33:39;;;;;;;11.90;8.27;;;4.30;99.90;;;;;;5095388;28;20427;-57
2023/03/08 09:36:06;;;;;;;10.03;7.93;;;4.40;99.90;;;;;;5096150;28;20818;-57
2023/03/08 09:38:33;;;;;;;10.80;8.97;;;4.40;99.90;;;;;;5096203;28;20443;-57
2023/03/08 09:41:14;;;;;;;12.23;9.60;;;4.40;99.90;;;;;;5096074;28;20479;-57
2023/03/08 09:43:47;;;;;;;12.00;10.33;;;4.50;99.90;;;;;;5096139;28;20485;-57
2023/03/08 09:46:16;;;;;;;12.77;9.80;;;4.50;99.90;;;;;;5096030;28;20429;-57
2023/03/08 09:48:49;;;;;;;12.10;9.80;;;4.50;99.90;;;;;;5096020;28;20452;-58
2023/03/08 09:51:19;;;;;;;12.30;10.10;;;4.50;99.90;;;;;;5095906;28;20506;-58
2023/03/08 09:53:53;;;;;;;11.30;9.93;;;4.50;99.90;;;;;;5095744;28;20493;-58
2023/03/08 09:56:28;;;;;;;13.83;11.40;;;4.50;99.90;;;;;;5095906;28;20428;-58
2023/03/08 09:58:59;;;;;;;14.63;11.70;;;4.50;99.90;;;;;;5095775;28;20439;-58
2023/03/08 10:01:36;;;;;;;14.90;11.30;;;4.60;99.90;;;;;;5095637;28;20468;-58
2023/03/08 10:04:28;;;;;;;11.77;10.33;;;4.60;99.90;;;;;;5095631;28;20471;-58
2023/03/08 10:07:14;;;;;;;12.50;10.57;;;4.60;99.90;;;;;;5095367;28;20447;-58
2023/03/08 10:09:48;;;;;;;12.67;10.90;;;4.60;99.90;;;;;;5095308;28;20528;-58
2023/03/08 10:12:22;;;;;;;13.03;11.50;;;4.60;99.90;;;;;;5095485;28;20427;-58
2023/03/08 10:14:52;;;;;;;12.30;10.70;;;4.60;99.90;;;;;;5095410;28;20423;-59
2023/03/08 10:17:22;;;;;;;14.27;11.60;;;4.60;99.90;;;;;;5095393;28;20447;-59
2023/03/08 10:19:56;;;;;;;14.30;11.70;;;4.70;99.90;;;;;;5095325;28;20463;-59
2023/03/08 10:22:27;;;;;;;12.23;10.73;;;4.70;99.90;;;;;;5095271;28;20435;-60
2023/03/08 10:24:59;;;;;;;14.53;11.93;;;4.70;99.90;;;;;;5095707;28;20519;-60
2023/03/08 10:27:28;;;;;;;14.77;12.57;;;4.70;99.90;;;;;;5096109;28;20431;-59
2023/03/08 10:29:57;;;;;;;12.50;10.70;;;4.70;99.90;;;;;;5095044;28;20475;-60
2023/03/08 10:32:25;;;;;;;17.53;11.83;;;4.80;99.90;;;;;;5095068;28;20451;-60
2023/03/08 10:34:59;;;;;;;16.80;13.20;;;4.80;99.90;;;;;;5095181;28;20514;-60
2023/03/08 10:37:31;;;;;;;14.57;12.80;;;4.80;99.90;;;;;;5095931;28;20431;-60
2023/03/08 10:40:04;;;;;;;13.83;12.37;;;4.80;99.90;;;;;;5097488;28;20463;-58
2023/03/08 10:42:32;;;;;;;14.27;11.20;;;4.80;99.90;;;;;;5096266;28;20432;-60
2023/03/08 10:45:02;;;;;;;14.73;12.87;;;4.90;99.90;;;;;;5094805;28;20491;-60
2023/03/08 10:47:31;;;;;;;14.30;11.43;;;4.90;99.90;;;;;;5096110;28;20444;-60
2023/03/08 10:50:15;;;;;;;14.60;12.87;;;4.90;99.90;;;;;;5095029;28;20558;-61
2023/03/08 10:52:42;;;;;;;15.20;13.00;;;5.00;99.90;;;;;;5094923;28;20443;-61
2023/03/08 10:55:13;;;;;;;15.97;13.93;;;5.10;99.90;;;;;;5095084;28;20511;-61
2023/03/08 10:57:41;;;;;;;16.10;12.30;;;5.10;99.90;;;;;;5095263;28;20435;-61
2023/03/08 11:00:31;;;;;;;19.63;13.13;;;5.20;99.90;;;;;;5095249;28;20513;-61
2023/03/08 11:03:13;;;;;;;14.30;12.07;;;5.20;99.90;;;;;;5095217;28;20533;-62
2023/03/08 11:05:51;;;;;;;14.97;12.60;;;5.30;99.90;;;;;;5094608;28;20909;-62
2023/03/08 11:08:20;;;;;;;14.57;12.53;;;5.30;99.90;;;;;;5095378;28;20447;-62
2023/03/08 11:10:47;;;;;;;14.20;11.60;;;5.30;99.90;;;;;;5094250;28;20899;-62
2023/03/08 11:13:24;;;;;;;13.53;12.07;;;5.40;99.90;;;;;;5094475;28;20439;-62
2023/03/08 11:15:58;;;;;;;14.80;12.23;;;5.40;99.90;;;;;;5094080;28;20474;-62
2023/03/08 11:18:34;;;;;;;18.90;14.07;;;5.50;99.90;;;;;;5094113;28;20910;-61
2023/03/08 11:21:09;;;;;;;17.30;13.57;;;5.50;99.90;;;;;;5094247;28;20474;-60
2023/03/08 11:23:43;;;;;;;18.00;15.07;;;5.60;99.90;;;;;;5094283;28;20471;-59
2023/03/08 11:26:18;;;;;;;16.07;13.93;;;5.60;99.90;;;;;;5094210;28;20423;-59
2023/03/08 11:28:56;;;;;;;17.63;15.10;;;5.60;99.90;;;;;;5094189;28;20435;-59
2023/03/08 11:31:28;;;;;;;18.63;14.13;;;5.70;99.90;;;;;;5094746;28;20832;-60
2023/03/08 11:34:21;;;;;;;18.77;16.20;;;5.70;99.90;;;;;;5094175;28;20424;-60
2023/03/08 11:36:57;;;;;;;18.80;16.03;;;5.70;99.90;;;;;;5094243;28;20435;-59
2023/03/08 11:39:27;;;;;;;20.40;16.33;;;5.70;99.90;;;;;;5094004;28;20431;-59
2023/03/08 11:42:02;;;;;;;20.33;16.53;;;5.70;99.90;;;;;;5094291;28;20443;-59
2023/03/08 11:44:41;;;;;;;19.93;16.17;;;5.70;99.90;;;;;;5094001;28;20520;-60
2023/03/08 11:47:38;;;;;;;21.63;17.07;;;5.70;99.90;;;;;;5093982;28;20431;-60
2023/03/08 11:50:11;;;;;;;20.30;16.70;;;5.70;99.90;;;;;;5094076;28;20471;-60
2023/03/08 11:52:47;;;;;;;21.60;16.73;;;5.80;99.90;;;;;;5093864;28;20432;-59
2023/03/08 11:55:39;;;;;;;23.20;17.50;;;5.80;99.90;;;;;;5093808;28;20424;-60
2023/03/08 11:58:13;;;;;;;22.60;17.17;;;5.80;99.90;;;;;;5093275;28;20435;-59
2023/03/08 12:00:43;;;;;;;22.63;17.50;;;5.80;99.90;;;;;;5093553;28;20469;-60
2023/03/08 12:03:14;;;;;;;19.03;17.03;;;5.90;99.90;;;;;;5093524;28;20451;-60
2023/03/08 12:05:45;;;;;;;23.17;18.40;;;5.90;99.90;;;;;;5093241;28;20932;-60
2023/03/08 12:08:18;;;;;;;17.50;15.10;;;5.90;99.90;;;;;;5093226;28;20443;-60
2023/03/08 12:10:49;;;;;;;18.33;15.70;;;6.00;99.90;;;;;;5093149;28;20486;-59
2023/03/08 12:13:20;;;;;;;19.50;16.73;;;6.00;99.90;;;;;;5094130;28;20451;-59
2023/03/08 12:15:52;;;;;;;20.67;17.27;;;6.10;99.90;;;;;;5093974;28;20424;-59
2023/03/08 12:18:27;;;;;;;19.83;16.30;;;6.10;99.90;;;;;;5093198;28;20432;-58
2023/03/08 12:21:00;;;;;;;19.53;16.93;;;6.10;99.90;;;;;;5093402;28;20467;-58
2023/03/08 12:23:34;;;;;;;20.90;17.60;;;6.20;99.90;;;;;;5093058;28;20933;-58
2023/03/08 12:26:07;;;;;;;21.67;18.37;;;6.20;99.90;;;;;;5093383;28;20441;-58
2023/03/08 12:28:39;;;;;;;19.87;16.23;;;6.30;99.90;;;;;;5093368;28;20460;-58
2023/03/08 12:31:20;;;;;;;19.37;16.50;;;6.30;99.90;;;;;;5093367;28;20468;-58
2023/03/08 12:33:47;;;;;;;20.47;17.73;;;6.40;99.90;;;;;;5093343;28;20786;-57
2023/03/08 12:36:17;;;;;;;20.90;17.97;;;6.40;99.90;;;;;;5093260;28;20444;-57
2023/03/08 12:38:47;;;;;;;22.27;18.90;;;6.40;99.90;;;;;;5093603;28;20452;-57
2023/03/08 12:41:24;;;;;;;22.17;18.13;;;6.50;99.90;;;;;;5093183;28;20881;-57
2023/03/08 12:44:00;;;;;;;23.47;19.13;;;6.40;99.90;;;;;;5093320;28;20476;-57
2023/03/08 12:46:27;;;;;;;20.20;16.63;;;6.40;99.90;;;;;;5093169;28;20435;-57
2023/03/08 12:48:54;;;;;;;18.17;15.90;;;6.40;99.90;;;;;;5092850;28;20941;-57
2023/03/08 12:51:25;;;;;;;17.03;15.20;;;6.40;99.90;;;;;;5092958;28;20463;-57
2023/03/08 12:54:02;;;;;;;17.03;15.27;;;6.40;99.90;;;;;;5093110;28;20428;-58
2023/03/08 12:56:31;;;;;;;18.77;15.87;;;6.40;99.90;;;;;;5093061;28;20439;-58
2023/03/08 12:59:01;;;;;;;20.60;15.47;;;6.30;99.90;;;;;;5093043;28;20444;-58